Terminal Aerodrome Forecast
Issued by NWS Wilmington, OH

Current Version | Previous Version | Graphics & Text | Print | Product List | Glossary On
Versions: 1 2 3 4 5 6 7 8 9 10 11 12 13 14 15 16 17 18 19 20 21 22 23 24 25
000
FTUS41 KILN 240900 AAC
TAFCVG
TAF AMD
KCVG 240901Z 2409/2512 10004KT 4SM BR SCT004 OVC200
      TEMPO 2409/2412 1SM BR
     FM241400 04006KT P6SM SCT040 BKN200
     FM250000 12004KT P6SM BKN200
     FM250600 VRB03KT 3SM BR BKN200=

USA.gov is the U.S. government's official web portal to all federal, state and local government web resources and services.